Terminal Aerodrome Forecast
Issued by NWS

Current Version | Previous Version | Graphics & Text | Print | Product List | Glossary On
Versions: 1 2 3 4 5 6 7 8 9 10 11 12 13 14 15 16 17 18 19 20 21 22 23 24 25
301
FTUS41 KPBZ 121517 AAA
TAFHLG
TAF AMD
KHLG 121517Z 1215/1312 18006KT P6SM OVC100
     FM122000 25008KT P6SM -SN BKN035
     FM130200 28015G28KT 4SM -SHSN BKN015
      TEMPO 1302/1305 1 1/2SM -SHSN BKN010
     FM130700 30012G25KT P6SM VCSH BKN022=

USA.gov is the U.S. government's official web portal to all federal, state and local government web resources and services.